TUI73C HESH-EDDL
Flight info
| Callsign | TUI73C |
|---|---|
| Flight time | N/A |
| Altitude | 30000 |
| Route | KAPIT L677 CVO A16 RASDA M855 USEBE N128 OTHON/N0456F320 UN128 PEREN UL863 EVIVI L863 OKANA DCT TUVAR DCT PETOV/N0442F340 DCT GOLVA DCT LAMSI L604 MOOCE/N0388F240 L604 SULUS/N0443F340 T852 TINSA T854 DOMUX DOMUX1A |
| Aircraft | B738/M-SDE2E3FGHIRWXY/LB1 |
Departure
| Time | 2026-05-08 15:09 |
|---|---|
| Airport | Sharm El Sheikh International Airport (HESH) |
Arrival
| Time | N/A |
|---|---|
| Airport | Düsseldorf Airport (EDDL) |
| Time | Latitude | Longitude | Altitude | Speed | Heading |
|---|---|---|---|---|---|
| 2026-05-08 14:48 | 27.97616 | 34.38619 | 137 ft | 0 kts | 313° |
| 2026-05-08 15:02 | 27.97599 | 34.38637 | 137 ft | 4 kts | 319° |
| 2026-05-08 15:03 | 27.97581 | 34.38658 | 137 ft | 3 kts | 297° |
| 2026-05-08 15:03 | 27.97572 | 34.38680 | 137 ft | 4 kts | 298° |
| 2026-05-08 15:03 | 27.97562 | 34.38702 | 136 ft | 1 kts | 288° |
| 2026-05-08 15:05 | 27.97562 | 34.38696 | 137 ft | 3 kts | 266° |
| 2026-05-08 15:06 | 27.97527 | 34.38669 | 137 ft | 10 kts | 222° |
| 2026-05-08 15:06 | 27.97456 | 34.38595 | 137 ft | 17 kts | 223° |
| 2026-05-08 15:06 | 27.97368 | 34.38502 | 136 ft | 17 kts | 221° |
| 2026-05-08 15:06 | 27.97281 | 34.38413 | 136 ft | 17 kts | 223° |
| 2026-05-08 15:07 | 27.97200 | 34.38328 | 136 ft | 16 kts | 222° |
| 2026-05-08 15:07 | 27.97145 | 34.38271 | 136 ft | 15 kts | 223° |
| 2026-05-08 15:07 | 27.97043 | 34.38164 | 136 ft | 15 kts | 223° |
| 2026-05-08 15:07 | 27.96986 | 34.38130 | 136 ft | 14 kts | 175° |
| 2026-05-08 15:08 | 27.96892 | 34.38222 | 135 ft | 13 kts | 133° |
| 2026-05-08 15:08 | 27.96881 | 34.38286 | 135 ft | 13 kts | 66° |
| 2026-05-08 15:08 | 27.96953 | 34.38374 | 136 ft | 20 kts | 43° |
| 2026-05-08 15:08 | 27.97292 | 34.38728 | 137 ft | 92 kts | 43° |
| 2026-05-08 15:09 | 27.97680 | 34.39135 | 135 ft | 132 kts | 44° |
| 2026-05-08 15:09 | 27.98475 | 34.39973 | 169 ft | 178 kts | 44° |
| 2026-05-08 15:09 | 27.99370 | 34.40986 | 743 ft | 187 kts | 44° |
| 2026-05-08 15:09 | 28.00459 | 34.41812 | 1326 ft | 195 kts | 15° |
| 2026-05-08 15:10 | 28.01851 | 34.41991 | 1651 ft | 210 kts | 8° |
| 2026-05-08 15:10 | 28.03275 | 34.42597 | 1814 ft | 230 kts | 31° |
| 2026-05-08 15:10 | 28.04677 | 34.43557 | 2182 ft | 238 kts | 30° |
| 2026-05-08 15:10 | 28.06158 | 34.44425 | 2709 ft | 240 kts | 27° |
| 2026-05-08 15:11 | 28.07652 | 34.45228 | 3260 ft | 241 kts | 25° |
| 2026-05-08 15:11 | 28.09221 | 34.46072 | 3592 ft | 255 kts | 28° |
| 2026-05-08 15:11 | 28.10806 | 34.47021 | 4191 ft | 260 kts | 28° |
| 2026-05-08 15:11 | 28.12418 | 34.47983 | 4869 ft | 265 kts | 24° |
| 2026-05-08 15:12 | 28.14225 | 34.48393 | 5446 ft | 269 kts | 1° |
| 2026-05-08 15:12 | 28.16106 | 34.48411 | 6096 ft | 272 kts | 0° |
| 2026-05-08 15:12 | 28.18006 | 34.48435 | 6754 ft | 275 kts | 1° |
| 2026-05-08 15:12 | 28.19923 | 34.48463 | 7410 ft | 277 kts | 0° |